Observations for Trim Market St
| Time | AQI | Temp °C | Hum % | Pres Pa | CO μg/m³ | H₂S μg/m³ | NO μg/m³ | NO₂ μg/m³ | O₃ μg/m³ | SO₂ μg/m³ | PM1 μg/m³ | PM2.5 μg/m³ | PM10 μg/m³ |
|---|---|---|---|---|---|---|---|---|---|---|---|---|---|
| Friday 14 August 2026 | |||||||||||||
| 22:54 | 2 | 18.7 | 69 | 52,813 | 0.03 | 0 | 1.28 | 20.66 | 61.63 | 0 | 0 | 1.63 | 3.11 |
| 22:48 | 2 | 18.8 | 69 | 52,566 | 0 | 0.74 | 1.3 | 17.44 | 62.01 | 0 | 0 | 1.15 | 2.47 |
| 22:47 | 2 | 18.9 | 69 | 52,531 | 0 | 2.63 | 1.25 | 21.67 | 60.32 | 0 | 0 | 1.16 | 3.1 |
| 22:41 | 2 | 19 | 68 | 52,906 | 0 | 4.75 | 1.25 | 28.94 | 58.7 | 0 | 0 | 1.18 | 3.08 |
| 22:39 | 2 | 19.1 | 68 | 53,111 | 0 | 1.66 | 1.26 | 15.73 | 68.62 | 0 | 0 | 1.67 | 3.07 |
| 22:21 | 2 | 19.7 | 64 | 56,979 | 0 | 9.57 | 1.23 | 36.76 | 58.98 | 0 | 0 | 1.37 | 2.22 |
| 22:20 | 2 | 19.8 | 63 | 57,112 | 0 | 10.13 | 1.23 | 28.21 | 64.44 | 0 | 0 | 1.88 | 2.87 |
| 22:19 | 2 | 19.8 | 63 | 57,226 | 0 | 6.76 | 1.23 | 43.42 | 51.69 | 0 | 0 | 1.4 | 2.19 |
| 22:18 | 2 | 19.8 | 63 | 57,310 | 0 | 6.63 | 1.23 | 30.69 | 58.94 | 0 | 0 | 1.9 | 2.84 |
| 22:17 | 2 | 19.9 | 63 | 57,378 | 0 | 6 | 1.23 | 22.02 | 62.87 | 0 | 0 | 1.42 | 2.16 |
| 22:16 | 2 | 19.9 | 62 | 57,433 | 0 | 5.39 | 1.23 | 22.73 | 62.07 | 0 | 0 | 1.43 | 2.14 |
| 22:15 | 2 | 19.9 | 62 | 57,484 | 0 | 7.47 | 1.23 | 19.92 | 65.2 | 0 | 0 | 1.45 | 2.13 |
| 22:14 | 2 | 20 | 62 | 57,532 | 0 | 7.87 | 1.23 | 32.02 | 58.58 | 0 | 0 | 1.45 | 2.13 |
| 22:13 | 2 | 20 | 62 | 57,583 | 0 | 8.55 | 1.23 | 46.37 | 52.81 | 0 | 0 | 1.94 | 2.81 |
| 22:12 | 2 | 20 | 62 | 57,631 | 0 | 8.36 | 1.23 | 24.23 | 61.65 | 0 | 0 | 1.45 | 2.12 |
| 22:11 | 2 | 20.1 | 61 | 57,677 | 0 | 11.23 | 1.22 | 48.24 | 57.81 | 0 | 0 | 1.47 | 2.11 |
| 22:10 | 2 | 20.1 | 61 | 57,723 | 0 | 7.13 | 1.22 | 29.88 | 60.34 | 0 | 0 | 1.48 | 2.09 |
| 22:09 | 2 | 20.1 | 61 | 57,759 | 0 | 6 | 1.23 | 29.91 | 58.24 | 0 | 0 | 1.49 | 2.08 |
| 22:08 | 2 | 20.2 | 61 | 57,786 | 0 | 2.39 | 1.22 | 21.47 | 68.04 | 0 | 0.71 | 1.99 | 2.75 |
| 22:05 | 2 | 20.2 | 60 | 57,822 | 0 | 4.73 | 1.22 | 23.47 | 65.35 | 0 | 0 | 1.52 | 2.05 |